<?xml version="1.0" encoding="UTF-8" standalone="no" ?>
<gpx xmlns="http://www.topografix.com/GPX/1/1" xmlns:xsi="http://www.w3.org/2001/XMLSchema-instance" xsi:schemaLocation="http://www.topografix.com/GPX/1/1 http://www.topografix.com/GPX/1/1/gpx.xsd" version="1.1" creator="VisuGPX - https://www.visugpx.com">
  <metadata>
    <name>Haux (boucle 1)</name>
    <desc><![CDATA[Randonnée VTT]]></desc>
  </metadata>
  <trk>
    <name><![CDATA[haux 1]]></name>
    <trkseg>
      <trkpt lat="44.73433" lon="-0.35983">
        <ele>89</ele>
        <time>2013-03-03T13:00:46Z</time>
      </trkpt>
      <trkpt lat="44.73408" lon="-0.35993">
        <ele>89</ele>
        <time>2013-03-03T13:00:54Z</time>
      </trkpt>
      <trkpt lat="44.73384" lon="-0.36003">
        <ele>89</ele>
        <time>2013-03-03T13:01:01Z</time>
      </trkpt>
      <trkpt lat="44.73352" lon="-0.36017">
        <ele>88</ele>
        <time>2013-03-03T13:01:09Z</time>
      </trkpt>
      <trkpt lat="44.73347" lon="-0.36018">
        <ele>87</ele>
        <time>2013-03-03T13:01:10Z</time>
      </trkpt>
      <trkpt lat="44.73343" lon="-0.3602">
        <ele>87</ele>
        <time>2013-03-03T13:01:11Z</time>
      </trkpt>
      <trkpt lat="44.7333" lon="-0.36023">
        <ele>87</ele>
        <time>2013-03-03T13:01:14Z</time>
      </trkpt>
      <trkpt lat="44.73295" lon="-0.36037">
        <ele>87</ele>
        <time>2013-03-03T13:01:22Z</time>
      </trkpt>
      <trkpt lat="44.73259" lon="-0.36053">
        <ele>88</ele>
        <time>2013-03-03T13:01:31Z</time>
      </trkpt>
      <trkpt lat="44.73229" lon="-0.36067">
        <ele>89</ele>
        <time>2013-03-03T13:01:39Z</time>
      </trkpt>
      <trkpt lat="44.73221" lon="-0.3607">
        <ele>89</ele>
        <time>2013-03-03T13:01:41Z</time>
      </trkpt>
      <trkpt lat="44.73185" lon="-0.36085">
        <ele>90</ele>
        <time>2013-03-03T13:01:50Z</time>
      </trkpt>
      <trkpt lat="44.73159" lon="-0.36095">
        <ele>91</ele>
        <time>2013-03-03T13:01:57Z</time>
      </trkpt>
      <trkpt lat="44.73119" lon="-0.36112">
        <ele>91</ele>
        <time>2013-03-03T13:02:07Z</time>
      </trkpt>
      <trkpt lat="44.73088" lon="-0.36122">
        <ele>91</ele>
        <time>2013-03-03T13:02:15Z</time>
      </trkpt>
      <trkpt lat="44.73084" lon="-0.36125">
        <ele>91</ele>
        <time>2013-03-03T13:02:16Z</time>
      </trkpt>
      <trkpt lat="44.7308" lon="-0.36127">
        <ele>91</ele>
        <time>2013-03-03T13:02:17Z</time>
      </trkpt>
      <trkpt lat="44.7306" lon="-0.36139">
        <ele>91</ele>
        <time>2013-03-03T13:02:23Z</time>
      </trkpt>
      <trkpt lat="44.73027" lon="-0.36165">
        <ele>91</ele>
        <time>2013-03-03T13:02:31Z</time>
      </trkpt>
      <trkpt lat="44.73019" lon="-0.36171">
        <ele>91</ele>
        <time>2013-03-03T13:02:33Z</time>
      </trkpt>
      <trkpt lat="44.73015" lon="-0.36174">
        <ele>91</ele>
        <time>2013-03-03T13:02:34Z</time>
      </trkpt>
      <trkpt lat="44.73003" lon="-0.36183">
        <ele>92</ele>
        <time>2013-03-03T13:02:37Z</time>
      </trkpt>
      <trkpt lat="44.72999" lon="-0.36186">
        <ele>92</ele>
        <time>2013-03-03T13:02:38Z</time>
      </trkpt>
      <trkpt lat="44.72959" lon="-0.36218">
        <ele>92</ele>
        <time>2013-03-03T13:02:48Z</time>
      </trkpt>
      <trkpt lat="44.72922" lon="-0.3625">
        <ele>92</ele>
        <time>2013-03-03T13:02:57Z</time>
      </trkpt>
      <trkpt lat="44.7289" lon="-0.36276">
        <ele>92</ele>
        <time>2013-03-03T13:03:05Z</time>
      </trkpt>
      <trkpt lat="44.72849" lon="-0.36299">
        <ele>90</ele>
        <time>2013-03-03T13:03:14Z</time>
      </trkpt>
      <trkpt lat="44.72826" lon="-0.36309">
        <ele>89</ele>
        <time>2013-03-03T13:03:18Z</time>
      </trkpt>
      <trkpt lat="44.72773" lon="-0.36322">
        <ele>87</ele>
        <time>2013-03-03T13:03:26Z</time>
      </trkpt>
      <trkpt lat="44.72741" lon="-0.36324">
        <ele>85</ele>
        <time>2013-03-03T13:03:32Z</time>
      </trkpt>
      <trkpt lat="44.72736" lon="-0.36324">
        <ele>85</ele>
        <time>2013-03-03T13:03:33Z</time>
      </trkpt>
      <trkpt lat="44.72733" lon="-0.36326">
        <ele>84</ele>
        <time>2013-03-03T13:03:34Z</time>
      </trkpt>
      <trkpt lat="44.7273" lon="-0.36328">
        <ele>84</ele>
        <time>2013-03-03T13:03:35Z</time>
      </trkpt>
      <trkpt lat="44.72728" lon="-0.36328">
        <ele>84</ele>
        <time>2013-03-03T13:03:39Z</time>
      </trkpt>
      <trkpt lat="44.72713" lon="-0.36343">
        <ele>82</ele>
        <time>2013-03-03T13:21:23Z</time>
      </trkpt>
      <trkpt lat="44.72708" lon="-0.3635">
        <ele>81</ele>
        <time>2013-03-03T13:21:24Z</time>
      </trkpt>
      <trkpt lat="44.72705" lon="-0.36358">
        <ele>81</ele>
        <time>2013-03-03T13:21:25Z</time>
      </trkpt>
      <trkpt lat="44.72701" lon="-0.36366">
        <ele>81</ele>
        <time>2013-03-03T13:21:26Z</time>
      </trkpt>
      <trkpt lat="44.72686" lon="-0.364">
        <ele>79</ele>
        <time>2013-03-03T13:21:30Z</time>
      </trkpt>
      <trkpt lat="44.72646" lon="-0.36479">
        <ele>78</ele>
        <time>2013-03-03T13:21:39Z</time>
      </trkpt>
      <trkpt lat="44.72628" lon="-0.3653">
        <ele>79</ele>
        <time>2013-03-03T13:21:45Z</time>
      </trkpt>
      <trkpt lat="44.72618" lon="-0.36594">
        <ele>80</ele>
        <time>2013-03-03T13:21:53Z</time>
      </trkpt>
      <trkpt lat="44.72616" lon="-0.36652">
        <ele>80</ele>
        <time>2013-03-03T13:22:01Z</time>
      </trkpt>
      <trkpt lat="44.72616" lon="-0.36696">
        <ele>79</ele>
        <time>2013-03-03T13:22:06Z</time>
      </trkpt>
      <trkpt lat="44.7261" lon="-0.36735">
        <ele>78</ele>
        <time>2013-03-03T13:22:10Z</time>
      </trkpt>
      <trkpt lat="44.72606" lon="-0.36745">
        <ele>78</ele>
        <time>2013-03-03T13:22:11Z</time>
      </trkpt>
      <trkpt lat="44.72602" lon="-0.36754">
        <ele>78</ele>
        <time>2013-03-03T13:22:12Z</time>
      </trkpt>
      <trkpt lat="44.72571" lon="-0.36798">
        <ele>76</ele>
        <time>2013-03-03T13:22:17Z</time>
      </trkpt>
      <trkpt lat="44.72529" lon="-0.36856">
        <ele>71</ele>
        <time>2013-03-03T13:22:23Z</time>
      </trkpt>
      <trkpt lat="44.72501" lon="-0.36935">
        <ele>65</ele>
        <time>2013-03-03T13:22:29Z</time>
      </trkpt>
      <trkpt lat="44.72474" lon="-0.37028">
        <ele>63</ele>
        <time>2013-03-03T13:22:36Z</time>
      </trkpt>
      <trkpt lat="44.72462" lon="-0.37085">
        <ele>61</ele>
        <time>2013-03-03T13:22:40Z</time>
      </trkpt>
      <trkpt lat="44.72462" lon="-0.371">
        <ele>60</ele>
        <time>2013-03-03T13:22:42Z</time>
      </trkpt>
      <trkpt lat="44.72463" lon="-0.37129">
        <ele>58</ele>
        <time>2013-03-03T13:22:43Z</time>
      </trkpt>
      <trkpt lat="44.72465" lon="-0.37144">
        <ele>57</ele>
        <time>2013-03-03T13:22:44Z</time>
      </trkpt>
      <trkpt lat="44.72469" lon="-0.37158">
        <ele>56</ele>
        <time>2013-03-03T13:22:45Z</time>
      </trkpt>
      <trkpt lat="44.7249" lon="-0.37228">
        <ele>52</ele>
        <time>2013-03-03T13:22:50Z</time>
      </trkpt>
      <trkpt lat="44.72492" lon="-0.37244">
        <ele>52</ele>
        <time>2013-03-03T13:22:51Z</time>
      </trkpt>
      <trkpt lat="44.72492" lon="-0.3726">
        <ele>52</ele>
        <time>2013-03-03T13:22:52Z</time>
      </trkpt>
      <trkpt lat="44.7249" lon="-0.37275">
        <ele>53</ele>
        <time>2013-03-03T13:22:53Z</time>
      </trkpt>
      <trkpt lat="44.72487" lon="-0.3729">
        <ele>52</ele>
        <time>2013-03-03T13:22:54Z</time>
      </trkpt>
      <trkpt lat="44.72483" lon="-0.37305">
        <ele>52</ele>
        <time>2013-03-03T13:22:55Z</time>
      </trkpt>
      <trkpt lat="44.72478" lon="-0.3732">
        <ele>51</ele>
        <time>2013-03-03T13:22:56Z</time>
      </trkpt>
      <trkpt lat="44.72471" lon="-0.37335">
        <ele>51</ele>
        <time>2013-03-03T13:22:57Z</time>
      </trkpt>
      <trkpt lat="44.72464" lon="-0.37348">
        <ele>51</ele>
        <time>2013-03-03T13:22:58Z</time>
      </trkpt>
      <trkpt lat="44.72455" lon="-0.3736">
        <ele>51</ele>
        <time>2013-03-03T13:22:59Z</time>
      </trkpt>
      <trkpt lat="44.72445" lon="-0.37371">
        <ele>51</ele>
        <time>2013-03-03T13:23:00Z</time>
      </trkpt>
      <trkpt lat="44.72434" lon="-0.3738">
        <ele>49</ele>
        <time>2013-03-03T13:23:01Z</time>
      </trkpt>
      <trkpt lat="44.72423" lon="-0.37389">
        <ele>48</ele>
        <time>2013-03-03T13:23:02Z</time>
      </trkpt>
      <trkpt lat="44.7234" lon="-0.3746">
        <ele>42</ele>
        <time>2013-03-03T13:23:10Z</time>
      </trkpt>
      <trkpt lat="44.72273" lon="-0.37513">
        <ele>38</ele>
        <time>2013-03-03T13:23:17Z</time>
      </trkpt>
      <trkpt lat="44.72225" lon="-0.37529">
        <ele>34</ele>
        <time>2013-03-03T13:23:22Z</time>
      </trkpt>
      <trkpt lat="44.72212" lon="-0.37534">
        <ele>34</ele>
        <time>2013-03-03T13:23:24Z</time>
      </trkpt>
      <trkpt lat="44.72208" lon="-0.3754">
        <ele>34</ele>
        <time>2013-03-03T13:23:25Z</time>
      </trkpt>
      <trkpt lat="44.72207" lon="-0.37546">
        <ele>35</ele>
        <time>2013-03-03T13:23:26Z</time>
      </trkpt>
      <trkpt lat="44.72206" lon="-0.37552">
        <ele>36</ele>
        <time>2013-03-03T13:23:27Z</time>
      </trkpt>
      <trkpt lat="44.72204" lon="-0.37556">
        <ele>36</ele>
        <time>2013-03-03T13:23:28Z</time>
      </trkpt>
      <trkpt lat="44.72201" lon="-0.37559">
        <ele>36</ele>
        <time>2013-03-03T13:23:29Z</time>
      </trkpt>
      <trkpt lat="44.72199" lon="-0.3756">
        <ele>36</ele>
        <time>2013-03-03T13:23:30Z</time>
      </trkpt>
      <trkpt lat="44.72197" lon="-0.3756">
        <ele>36</ele>
        <time>2013-03-03T13:23:34Z</time>
      </trkpt>
      <trkpt lat="44.72197" lon="-0.3756">
        <ele>36</ele>
        <time>2013-03-03T13:23:48Z</time>
      </trkpt>
      <trkpt lat="44.72197" lon="-0.37559">
        <ele>36</ele>
        <time>2013-03-03T13:23:55Z</time>
      </trkpt>
      <trkpt lat="44.72197" lon="-0.37559">
        <ele>36</ele>
        <time>2013-03-03T13:24:07Z</time>
      </trkpt>
      <trkpt lat="44.72197" lon="-0.37559">
        <ele>36</ele>
        <time>2013-03-03T13:24:14Z</time>
      </trkpt>
      <trkpt lat="44.72197" lon="-0.37557">
        <ele>36</ele>
        <time>2013-03-03T13:24:17Z</time>
      </trkpt>
      <trkpt lat="44.72198" lon="-0.37555">
        <ele>35</ele>
        <time>2013-03-03T13:24:18Z</time>
      </trkpt>
      <trkpt lat="44.72199" lon="-0.37554">
        <ele>35</ele>
        <time>2013-03-03T13:24:19Z</time>
      </trkpt>
      <trkpt lat="44.722" lon="-0.37553">
        <ele>35</ele>
        <time>2013-03-03T13:24:20Z</time>
      </trkpt>
      <trkpt lat="44.72201" lon="-0.37551">
        <ele>35</ele>
        <time>2013-03-03T13:24:21Z</time>
      </trkpt>
      <trkpt lat="44.72207" lon="-0.37541">
        <ele>35</ele>
        <time>2013-03-03T13:24:25Z</time>
      </trkpt>
      <trkpt lat="44.72209" lon="-0.37541">
        <ele>35</ele>
        <time>2013-03-03T13:24:26Z</time>
      </trkpt>
      <trkpt lat="44.72211" lon="-0.37542">
        <ele>35</ele>
        <time>2013-03-03T13:24:27Z</time>
      </trkpt>
      <trkpt lat="44.72213" lon="-0.37543">
        <ele>35</ele>
        <time>2013-03-03T13:24:28Z</time>
      </trkpt>
      <trkpt lat="44.72215" lon="-0.37545">
        <ele>35</ele>
        <time>2013-03-03T13:24:29Z</time>
      </trkpt>
      <trkpt lat="44.72217" lon="-0.37547">
        <ele>36</ele>
        <time>2013-03-03T13:24:30Z</time>
      </trkpt>
      <trkpt lat="44.72219" lon="-0.37549">
        <ele>36</ele>
        <time>2013-03-03T13:24:31Z</time>
      </trkpt>
      <trkpt lat="44.72231" lon="-0.37566">
        <ele>40</ele>
        <time>2013-03-03T13:24:38Z</time>
      </trkpt>
      <trkpt lat="44.72243" lon="-0.37586">
        <ele>42</ele>
        <time>2013-03-03T13:24:46Z</time>
      </trkpt>
      <trkpt lat="44.72249" lon="-0.37595">
        <ele>43</ele>
        <time>2013-03-03T13:24:53Z</time>
      </trkpt>
      <trkpt lat="44.72254" lon="-0.376">
        <ele>44</ele>
        <time>2013-03-03T13:25:00Z</time>
      </trkpt>
      <trkpt lat="44.72255" lon="-0.376">
        <ele>44</ele>
        <time>2013-03-03T13:25:01Z</time>
      </trkpt>
      <trkpt lat="44.7226" lon="-0.37602">
        <ele>45</ele>
        <time>2013-03-03T13:25:06Z</time>
      </trkpt>
      <trkpt lat="44.72267" lon="-0.37604">
        <ele>47</ele>
        <time>2013-03-03T13:25:12Z</time>
      </trkpt>
      <trkpt lat="44.72269" lon="-0.37608">
        <ele>47</ele>
        <time>2013-03-03T13:25:14Z</time>
      </trkpt>
      <trkpt lat="44.72275" lon="-0.37615">
        <ele>49</ele>
        <time>2013-03-03T13:25:19Z</time>
      </trkpt>
      <trkpt lat="44.72282" lon="-0.37631">
        <ele>51</ele>
        <time>2013-03-03T13:25:29Z</time>
      </trkpt>
      <trkpt lat="44.72287" lon="-0.3765">
        <ele>52</ele>
        <time>2013-03-03T13:25:38Z</time>
      </trkpt>
      <trkpt lat="44.7229" lon="-0.3767">
        <ele>53</ele>
        <time>2013-03-03T13:25:46Z</time>
      </trkpt>
      <trkpt lat="44.72298" lon="-0.37688">
        <ele>54</ele>
        <time>2013-03-03T13:25:54Z</time>
      </trkpt>
      <trkpt lat="44.72309" lon="-0.37712">
        <ele>55</ele>
        <time>2013-03-03T13:26:03Z</time>
      </trkpt>
      <trkpt lat="44.72319" lon="-0.37738">
        <ele>54</ele>
        <time>2013-03-03T13:26:13Z</time>
      </trkpt>
      <trkpt lat="44.72328" lon="-0.3776">
        <ele>54</ele>
        <time>2013-03-03T13:26:22Z</time>
      </trkpt>
      <trkpt lat="44.72333" lon="-0.3777">
        <ele>53</ele>
        <time>2013-03-03T13:26:26Z</time>
      </trkpt>
      <trkpt lat="44.72345" lon="-0.37767">
        <ele>55</ele>
        <time>2013-03-03T13:26:32Z</time>
      </trkpt>
      <trkpt lat="44.72358" lon="-0.37756">
        <ele>56</ele>
        <time>2013-03-03T13:26:40Z</time>
      </trkpt>
      <trkpt lat="44.72378" lon="-0.37739">
        <ele>58</ele>
        <time>2013-03-03T13:26:52Z</time>
      </trkpt>
      <trkpt lat="44.72393" lon="-0.37726">
        <ele>60</ele>
        <time>2013-03-03T13:27:02Z</time>
      </trkpt>
      <trkpt lat="44.72408" lon="-0.37714">
        <ele>61</ele>
        <time>2013-03-03T13:27:11Z</time>
      </trkpt>
      <trkpt lat="44.7242" lon="-0.37703">
        <ele>62</ele>
        <time>2013-03-03T13:27:19Z</time>
      </trkpt>
      <trkpt lat="44.72435" lon="-0.3769">
        <ele>63</ele>
        <time>2013-03-03T13:27:29Z</time>
      </trkpt>
      <trkpt lat="44.72447" lon="-0.3768">
        <ele>64</ele>
        <time>2013-03-03T13:27:37Z</time>
      </trkpt>
      <trkpt lat="44.7246" lon="-0.37669">
        <ele>65</ele>
        <time>2013-03-03T13:27:46Z</time>
      </trkpt>
      <trkpt lat="44.72472" lon="-0.37658">
        <ele>67</ele>
        <time>2013-03-03T13:27:54Z</time>
      </trkpt>
      <trkpt lat="44.72488" lon="-0.37645">
        <ele>69</ele>
        <time>2013-03-03T13:28:04Z</time>
      </trkpt>
      <trkpt lat="44.725" lon="-0.37636">
        <ele>70</ele>
        <time>2013-03-03T13:28:12Z</time>
      </trkpt>
      <trkpt lat="44.72512" lon="-0.37627">
        <ele>71</ele>
        <time>2013-03-03T13:28:21Z</time>
      </trkpt>
      <trkpt lat="44.72516" lon="-0.3762">
        <ele>71</ele>
        <time>2013-03-03T13:28:26Z</time>
      </trkpt>
      <trkpt lat="44.72526" lon="-0.37614">
        <ele>72</ele>
        <time>2013-03-03T13:28:34Z</time>
      </trkpt>
      <trkpt lat="44.72535" lon="-0.37608">
        <ele>73</ele>
        <time>2013-03-03T13:28:41Z</time>
      </trkpt>
      <trkpt lat="44.72546" lon="-0.376">
        <ele>73</ele>
        <time>2013-03-03T13:28:50Z</time>
      </trkpt>
      <trkpt lat="44.72556" lon="-0.37589">
        <ele>75</ele>
        <time>2013-03-03T13:28:59Z</time>
      </trkpt>
      <trkpt lat="44.72566" lon="-0.37582">
        <ele>76</ele>
        <time>2013-03-03T13:29:07Z</time>
      </trkpt>
      <trkpt lat="44.72577" lon="-0.37573">
        <ele>76</ele>
        <time>2013-03-03T13:29:15Z</time>
      </trkpt>
      <trkpt lat="44.72588" lon="-0.37562">
        <ele>77</ele>
        <time>2013-03-03T13:29:23Z</time>
      </trkpt>
      <trkpt lat="44.72603" lon="-0.37547">
        <ele>78</ele>
        <time>2013-03-03T13:29:32Z</time>
      </trkpt>
      <trkpt lat="44.72618" lon="-0.37539">
        <ele>79</ele>
        <time>2013-03-03T13:29:39Z</time>
      </trkpt>
      <trkpt lat="44.7263" lon="-0.37533">
        <ele>80</ele>
        <time>2013-03-03T13:29:46Z</time>
      </trkpt>
      <trkpt lat="44.72638" lon="-0.37531">
        <ele>80</ele>
        <time>2013-03-03T13:29:53Z</time>
      </trkpt>
      <trkpt lat="44.72639" lon="-0.37531">
        <ele>80</ele>
        <time>2013-03-03T13:30:03Z</time>
      </trkpt>
      <trkpt lat="44.72639" lon="-0.37532">
        <ele>80</ele>
        <time>2013-03-03T13:30:10Z</time>
      </trkpt>
      <trkpt lat="44.7264" lon="-0.37531">
        <ele>80</ele>
        <time>2013-03-03T13:30:21Z</time>
      </trkpt>
      <trkpt lat="44.72641" lon="-0.37532">
        <ele>80</ele>
        <time>2013-03-03T13:30:39Z</time>
      </trkpt>
      <trkpt lat="44.72642" lon="-0.3753">
        <ele>80</ele>
        <time>2013-03-03T13:30:45Z</time>
      </trkpt>
      <trkpt lat="44.72647" lon="-0.3753">
        <ele>80</ele>
        <time>2013-03-03T13:30:49Z</time>
      </trkpt>
      <trkpt lat="44.72663" lon="-0.37527">
        <ele>81</ele>
        <time>2013-03-03T13:30:55Z</time>
      </trkpt>
      <trkpt lat="44.72694" lon="-0.37526">
        <ele>81</ele>
        <time>2013-03-03T13:31:03Z</time>
      </trkpt>
      <trkpt lat="44.72729" lon="-0.37533">
        <ele>80</ele>
        <time>2013-03-03T13:31:11Z</time>
      </trkpt>
      <trkpt lat="44.72733" lon="-0.37531">
        <ele>80</ele>
        <time>2013-03-03T13:31:12Z</time>
      </trkpt>
      <trkpt lat="44.72736" lon="-0.37528">
        <ele>80</ele>
        <time>2013-03-03T13:31:13Z</time>
      </trkpt>
      <trkpt lat="44.72739" lon="-0.37524">
        <ele>80</ele>
        <time>2013-03-03T13:31:14Z</time>
      </trkpt>
      <trkpt lat="44.72742" lon="-0.37521">
        <ele>80</ele>
        <time>2013-03-03T13:31:15Z</time>
      </trkpt>
      <trkpt lat="44.72746" lon="-0.37518">
        <ele>80</ele>
        <time>2013-03-03T13:31:16Z</time>
      </trkpt>
      <trkpt lat="44.72749" lon="-0.37516">
        <ele>80</ele>
        <time>2013-03-03T13:31:17Z</time>
      </trkpt>
      <trkpt lat="44.7278" lon="-0.375">
        <ele>79</ele>
        <time>2013-03-03T13:31:25Z</time>
      </trkpt>
      <trkpt lat="44.72788" lon="-0.37495">
        <ele>78</ele>
        <time>2013-03-03T13:31:27Z</time>
      </trkpt>
      <trkpt lat="44.72815" lon="-0.37468">
        <ele>75</ele>
        <time>2013-03-03T13:31:34Z</time>
      </trkpt>
      <trkpt lat="44.72826" lon="-0.37456">
        <ele>74</ele>
        <time>2013-03-03T13:31:37Z</time>
      </trkpt>
      <trkpt lat="44.72832" lon="-0.37445">
        <ele>73</ele>
        <time>2013-03-03T13:31:39Z</time>
      </trkpt>
      <trkpt lat="44.72858" lon="-0.37415">
        <ele>71</ele>
        <time>2013-03-03T13:31:45Z</time>
      </trkpt>
      <trkpt lat="44.72863" lon="-0.3741">
        <ele>70</ele>
        <time>2013-03-03T13:31:46Z</time>
      </trkpt>
      <trkpt lat="44.72904" lon="-0.3737">
        <ele>66</ele>
        <time>2013-03-03T13:31:53Z</time>
      </trkpt>
      <trkpt lat="44.72945" lon="-0.37339">
        <ele>61</ele>
        <time>2013-03-03T13:31:59Z</time>
      </trkpt>
      <trkpt lat="44.72951" lon="-0.37333">
        <ele>60</ele>
        <time>2013-03-03T13:32:00Z</time>
      </trkpt>
      <trkpt lat="44.72987" lon="-0.37292">
        <ele>56</ele>
        <time>2013-03-03T13:32:06Z</time>
      </trkpt>
      <trkpt lat="44.72994" lon="-0.37287">
        <ele>55</ele>
        <time>2013-03-03T13:32:07Z</time>
      </trkpt>
      <trkpt lat="44.73042" lon="-0.37261">
        <ele>51</ele>
        <time>2013-03-03T13:32:14Z</time>
      </trkpt>
      <trkpt lat="44.73067" lon="-0.37251">
        <ele>49</ele>
        <time>2013-03-03T13:32:19Z</time>
      </trkpt>
      <trkpt lat="44.73081" lon="-0.37248">
        <ele>48</ele>
        <time>2013-03-03T13:32:22Z</time>
      </trkpt>
      <trkpt lat="44.73086" lon="-0.37247">
        <ele>48</ele>
        <time>2013-03-03T13:32:23Z</time>
      </trkpt>
      <trkpt lat="44.73091" lon="-0.37247">
        <ele>47</ele>
        <time>2013-03-03T13:32:24Z</time>
      </trkpt>
      <trkpt lat="44.73096" lon="-0.37246">
        <ele>46</ele>
        <time>2013-03-03T13:32:25Z</time>
      </trkpt>
      <trkpt lat="44.73102" lon="-0.37246">
        <ele>46</ele>
        <time>2013-03-03T13:32:26Z</time>
      </trkpt>
      <trkpt lat="44.73108" lon="-0.37248">
        <ele>45</ele>
        <time>2013-03-03T13:32:27Z</time>
      </trkpt>
      <trkpt lat="44.73122" lon="-0.37242">
        <ele>43</ele>
        <time>2013-03-03T13:32:31Z</time>
      </trkpt>
      <trkpt lat="44.73124" lon="-0.3724">
        <ele>42</ele>
        <time>2013-03-03T13:32:32Z</time>
      </trkpt>
      <trkpt lat="44.73126" lon="-0.37238">
        <ele>42</ele>
        <time>2013-03-03T13:32:33Z</time>
      </trkpt>
      <trkpt lat="44.73128" lon="-0.37236">
        <ele>41</ele>
        <time>2013-03-03T13:32:34Z</time>
      </trkpt>
      <trkpt lat="44.7313" lon="-0.37234">
        <ele>41</ele>
        <time>2013-03-03T13:32:35Z</time>
      </trkpt>
      <trkpt lat="44.73134" lon="-0.37228">
        <ele>40</ele>
        <time>2013-03-03T13:32:38Z</time>
      </trkpt>
      <trkpt lat="44.73135" lon="-0.37224">
        <ele>39</ele>
        <time>2013-03-03T13:32:39Z</time>
      </trkpt>
      <trkpt lat="44.73137" lon="-0.37219">
        <ele>39</ele>
        <time>2013-03-03T13:32:40Z</time>
      </trkpt>
      <trkpt lat="44.73139" lon="-0.37215">
        <ele>39</ele>
        <time>2013-03-03T13:32:41Z</time>
      </trkpt>
      <trkpt lat="44.73141" lon="-0.37212">
        <ele>38</ele>
        <time>2013-03-03T13:32:42Z</time>
      </trkpt>
      <trkpt lat="44.73143" lon="-0.37209">
        <ele>38</ele>
        <time>2013-03-03T13:32:43Z</time>
      </trkpt>
      <trkpt lat="44.73145" lon="-0.37207">
        <ele>38</ele>
        <time>2013-03-03T13:32:44Z</time>
      </trkpt>
      <trkpt lat="44.73148" lon="-0.37206">
        <ele>37</ele>
        <time>2013-03-03T13:32:45Z</time>
      </trkpt>
      <trkpt lat="44.73152" lon="-0.37204">
        <ele>37</ele>
        <time>2013-03-03T13:32:46Z</time>
      </trkpt>
      <trkpt lat="44.73156" lon="-0.37202">
        <ele>37</ele>
        <time>2013-03-03T13:32:47Z</time>
      </trkpt>
      <trkpt lat="44.73161" lon="-0.37201">
        <ele>36</ele>
        <time>2013-03-03T13:32:48Z</time>
      </trkpt>
      <trkpt lat="44.73165" lon="-0.37198">
        <ele>36</ele>
        <time>2013-03-03T13:32:49Z</time>
      </trkpt>
      <trkpt lat="44.73168" lon="-0.37196">
        <ele>36</ele>
        <time>2013-03-03T13:32:50Z</time>
      </trkpt>
      <trkpt lat="44.73173" lon="-0.37194">
        <ele>36</ele>
        <time>2013-03-03T13:32:51Z</time>
      </trkpt>
      <trkpt lat="44.73186" lon="-0.37184">
        <ele>37</ele>
        <time>2013-03-03T13:32:55Z</time>
      </trkpt>
      <trkpt lat="44.73188" lon="-0.37182">
        <ele>37</ele>
        <time>2013-03-03T13:32:56Z</time>
      </trkpt>
      <trkpt lat="44.7319" lon="-0.37181">
        <ele>37</ele>
        <time>2013-03-03T13:32:57Z</time>
      </trkpt>
      <trkpt lat="44.73192" lon="-0.37179">
        <ele>37</ele>
        <time>2013-03-03T13:32:58Z</time>
      </trkpt>
      <trkpt lat="44.73203" lon="-0.37167">
        <ele>38</ele>
        <time>2013-03-03T13:33:05Z</time>
      </trkpt>
      <trkpt lat="44.73213" lon="-0.37153">
        <ele>41</ele>
        <time>2013-03-03T13:33:12Z</time>
      </trkpt>
      <trkpt lat="44.73221" lon="-0.37144">
        <ele>43</ele>
        <time>2013-03-03T13:33:17Z</time>
      </trkpt>
      <trkpt lat="44.73227" lon="-0.37138">
        <ele>45</ele>
        <time>2013-03-03T13:33:21Z</time>
      </trkpt>
      <trkpt lat="44.73229" lon="-0.37137">
        <ele>45</ele>
        <time>2013-03-03T13:33:22Z</time>
      </trkpt>
      <trkpt lat="44.7323" lon="-0.37136">
        <ele>45</ele>
        <time>2013-03-03T13:33:23Z</time>
      </trkpt>
      <trkpt lat="44.73241" lon="-0.37126">
        <ele>47</ele>
        <time>2013-03-03T13:33:32Z</time>
      </trkpt>
      <trkpt lat="44.73249" lon="-0.37117">
        <ele>49</ele>
        <time>2013-03-03T13:33:39Z</time>
      </trkpt>
      <trkpt lat="44.73256" lon="-0.37107">
        <ele>50</ele>
        <time>2013-03-03T13:33:46Z</time>
      </trkpt>
      <trkpt lat="44.73258" lon="-0.37105">
        <ele>50</ele>
        <time>2013-03-03T13:33:48Z</time>
      </trkpt>
      <trkpt lat="44.73261" lon="-0.37101">
        <ele>50</ele>
        <time>2013-03-03T13:33:51Z</time>
      </trkpt>
      <trkpt lat="44.73262" lon="-0.371">
        <ele>50</ele>
        <time>2013-03-03T13:33:52Z</time>
      </trkpt>
      <trkpt lat="44.73263" lon="-0.37098">
        <ele>51</ele>
        <time>2013-03-03T13:33:53Z</time>
      </trkpt>
      <trkpt lat="44.73266" lon="-0.37093">
        <ele>51</ele>
        <time>2013-03-03T13:33:56Z</time>
      </trkpt>
      <trkpt lat="44.73267" lon="-0.37092">
        <ele>51</ele>
        <time>2013-03-03T13:33:57Z</time>
      </trkpt>
      <trkpt lat="44.73271" lon="-0.37083">
        <ele>52</ele>
        <time>2013-03-03T13:34:02Z</time>
      </trkpt>
      <trkpt lat="44.73274" lon="-0.37075">
        <ele>53</ele>
        <time>2013-03-03T13:34:08Z</time>
      </trkpt>
      <trkpt lat="44.73276" lon="-0.37073">
        <ele>53</ele>
        <time>2013-03-03T13:34:10Z</time>
      </trkpt>
      <trkpt lat="44.73278" lon="-0.37071">
        <ele>53</ele>
        <time>2013-03-03T13:34:12Z</time>
      </trkpt>
      <trkpt lat="44.73278" lon="-0.37069">
        <ele>53</ele>
        <time>2013-03-03T13:34:13Z</time>
      </trkpt>
      <trkpt lat="44.73279" lon="-0.37068">
        <ele>53</ele>
        <time>2013-03-03T13:34:14Z</time>
      </trkpt>
      <trkpt lat="44.73284" lon="-0.3706">
        <ele>54</ele>
        <time>2013-03-03T13:34:19Z</time>
      </trkpt>
      <trkpt lat="44.73289" lon="-0.3705">
        <ele>54</ele>
        <time>2013-03-03T13:34:25Z</time>
      </trkpt>
      <trkpt lat="44.73291" lon="-0.37048">
        <ele>55</ele>
        <time>2013-03-03T13:34:26Z</time>
      </trkpt>
      <trkpt lat="44.73291" lon="-0.37047">
        <ele>55</ele>
        <time>2013-03-03T13:34:27Z</time>
      </trkpt>
      <trkpt lat="44.73294" lon="-0.37038">
        <ele>55</ele>
        <time>2013-03-03T13:34:32Z</time>
      </trkpt>
      <trkpt lat="44.73295" lon="-0.37036">
        <ele>56</ele>
        <time>2013-03-03T13:34:33Z</time>
      </trkpt>
      <trkpt lat="44.73296" lon="-0.37034">
        <ele>56</ele>
        <time>2013-03-03T13:34:34Z</time>
      </trkpt>
      <trkpt lat="44.73296" lon="-0.37032">
        <ele>56</ele>
        <time>2013-03-03T13:34:35Z</time>
      </trkpt>
      <trkpt lat="44.73299" lon="-0.37025">
        <ele>57</ele>
        <time>2013-03-03T13:34:40Z</time>
      </trkpt>
      <trkpt lat="44.733" lon="-0.37019">
        <ele>57</ele>
        <time>2013-03-03T13:34:44Z</time>
      </trkpt>
      <trkpt lat="44.733" lon="-0.37017">
        <ele>58</ele>
        <time>2013-03-03T13:34:45Z</time>
      </trkpt>
      <trkpt lat="44.73302" lon="-0.37012">
        <ele>58</ele>
        <time>2013-03-03T13:34:48Z</time>
      </trkpt>
      <trkpt lat="44.73303" lon="-0.37011">
        <ele>58</ele>
        <time>2013-03-03T13:34:49Z</time>
      </trkpt>
      <trkpt lat="44.73307" lon="-0.36998">
        <ele>60</ele>
        <time>2013-03-03T13:34:57Z</time>
      </trkpt>
      <trkpt lat="44.73309" lon="-0.36991">
        <ele>60</ele>
        <time>2013-03-03T13:35:01Z</time>
      </trkpt>
      <trkpt lat="44.7331" lon="-0.36987">
        <ele>61</ele>
        <time>2013-03-03T13:35:03Z</time>
      </trkpt>
      <trkpt lat="44.73314" lon="-0.36972">
        <ele>63</ele>
        <time>2013-03-03T13:35:10Z</time>
      </trkpt>
      <trkpt lat="44.73316" lon="-0.36968">
        <ele>63</ele>
        <time>2013-03-03T13:35:13Z</time>
      </trkpt>
      <trkpt lat="44.73317" lon="-0.36966">
        <ele>63</ele>
        <time>2013-03-03T13:35:14Z</time>
      </trkpt>
      <trkpt lat="44.73323" lon="-0.36952">
        <ele>65</ele>
        <time>2013-03-03T13:35:22Z</time>
      </trkpt>
      <trkpt lat="44.73329" lon="-0.36941">
        <ele>67</ele>
        <time>2013-03-03T13:35:29Z</time>
      </trkpt>
      <trkpt lat="44.73337" lon="-0.36926">
        <ele>69</ele>
        <time>2013-03-03T13:35:39Z</time>
      </trkpt>
      <trkpt lat="44.73342" lon="-0.36915">
        <ele>70</ele>
        <time>2013-03-03T13:35:46Z</time>
      </trkpt>
      <trkpt lat="44.73342" lon="-0.36913">
        <ele>70</ele>
        <time>2013-03-03T13:35:47Z</time>
      </trkpt>
      <trkpt lat="44.73343" lon="-0.36912">
        <ele>70</ele>
        <time>2013-03-03T13:35:48Z</time>
      </trkpt>
      <trkpt lat="44.73346" lon="-0.36899">
        <ele>71</ele>
        <time>2013-03-03T13:35:56Z</time>
      </trkpt>
      <trkpt lat="44.73346" lon="-0.36898">
        <ele>71</ele>
        <time>2013-03-03T13:35:57Z</time>
      </trkpt>
      <trkpt lat="44.73347" lon="-0.36894">
        <ele>71</ele>
        <time>2013-03-03T13:35:59Z</time>
      </trkpt>
      <trkpt lat="44.73347" lon="-0.36892">
        <ele>71</ele>
        <time>2013-03-03T13:36:00Z</time>
      </trkpt>
      <trkpt lat="44.73347" lon="-0.36882">
        <ele>72</ele>
        <time>2013-03-03T13:36:07Z</time>
      </trkpt>
      <trkpt lat="44.73347" lon="-0.36869">
        <ele>73</ele>
        <time>2013-03-03T13:36:14Z</time>
      </trkpt>
      <trkpt lat="44.73348" lon="-0.36854">
        <ele>73</ele>
        <time>2013-03-03T13:36:21Z</time>
      </trkpt>
      <trkpt lat="44.73347" lon="-0.3685">
        <ele>73</ele>
        <time>2013-03-03T13:36:22Z</time>
      </trkpt>
      <trkpt lat="44.73347" lon="-0.36847">
        <ele>73</ele>
        <time>2013-03-03T13:36:23Z</time>
      </trkpt>
      <trkpt lat="44.73347" lon="-0.36845">
        <ele>73</ele>
        <time>2013-03-03T13:36:24Z</time>
      </trkpt>
      <trkpt lat="44.73347" lon="-0.36842">
        <ele>73</ele>
        <time>2013-03-03T13:36:25Z</time>
      </trkpt>
      <trkpt lat="44.73347" lon="-0.36839">
        <ele>74</ele>
        <time>2013-03-03T13:36:26Z</time>
      </trkpt>
      <trkpt lat="44.73348" lon="-0.36833">
        <ele>74</ele>
        <time>2013-03-03T13:36:28Z</time>
      </trkpt>
      <trkpt lat="44.73348" lon="-0.3683">
        <ele>74</ele>
        <time>2013-03-03T13:36:29Z</time>
      </trkpt>
      <trkpt lat="44.73349" lon="-0.36827">
        <ele>74</ele>
        <time>2013-03-03T13:36:30Z</time>
      </trkpt>
      <trkpt lat="44.73349" lon="-0.36824">
        <ele>74</ele>
        <time>2013-03-03T13:36:31Z</time>
      </trkpt>
      <trkpt lat="44.7335" lon="-0.36822">
        <ele>74</ele>
        <time>2013-03-03T13:36:32Z</time>
      </trkpt>
      <trkpt lat="44.73354" lon="-0.36802">
        <ele>75</ele>
        <time>2013-03-03T13:36:40Z</time>
      </trkpt>
      <trkpt lat="44.73367" lon="-0.36791">
        <ele>76</ele>
        <time>2013-03-03T13:36:50Z</time>
      </trkpt>
      <trkpt lat="44.73373" lon="-0.36788">
        <ele>76</ele>
        <time>2013-03-03T13:36:58Z</time>
      </trkpt>
      <trkpt lat="44.73372" lon="-0.36788">
        <ele>76</ele>
        <time>2013-03-03T13:37:07Z</time>
      </trkpt>
      <trkpt lat="44.73372" lon="-0.36788">
        <ele>76</ele>
        <time>2013-03-03T13:37:22Z</time>
      </trkpt>
      <trkpt lat="44.73373" lon="-0.36788">
        <ele>76</ele>
        <time>2013-03-03T13:37:41Z</time>
      </trkpt>
      <trkpt lat="44.73373" lon="-0.36788">
        <ele>76</ele>
        <time>2013-03-03T13:37:50Z</time>
      </trkpt>
      <trkpt lat="44.73372" lon="-0.36788">
        <ele>76</ele>
        <time>2013-03-03T13:38:05Z</time>
      </trkpt>
      <trkpt lat="44.73373" lon="-0.36787">
        <ele>76</ele>
        <time>2013-03-03T13:38:22Z</time>
      </trkpt>
      <trkpt lat="44.73372" lon="-0.36787">
        <ele>76</ele>
        <time>2013-03-03T13:38:39Z</time>
      </trkpt>
      <trkpt lat="44.73373" lon="-0.36785">
        <ele>76</ele>
        <time>2013-03-03T13:38:53Z</time>
      </trkpt>
      <trkpt lat="44.73374" lon="-0.36785">
        <ele>76</ele>
        <time>2013-03-03T13:39:01Z</time>
      </trkpt>
      <trkpt lat="44.73378" lon="-0.36785">
        <ele>76</ele>
        <time>2013-03-03T13:39:09Z</time>
      </trkpt>
      <trkpt lat="44.73379" lon="-0.36784">
        <ele>76</ele>
        <time>2013-03-03T13:39:10Z</time>
      </trkpt>
      <trkpt lat="44.7338" lon="-0.36783">
        <ele>75</ele>
        <time>2013-03-03T13:39:11Z</time>
      </trkpt>
      <trkpt lat="44.73381" lon="-0.36782">
        <ele>75</ele>
        <time>2013-03-03T13:39:12Z</time>
      </trkpt>
      <trkpt lat="44.73383" lon="-0.36781">
        <ele>75</ele>
        <time>2013-03-03T13:39:13Z</time>
      </trkpt>
      <trkpt lat="44.73385" lon="-0.3678">
        <ele>75</ele>
        <time>2013-03-03T13:39:14Z</time>
      </trkpt>
      <trkpt lat="44.73388" lon="-0.36779">
        <ele>75</ele>
        <time>2013-03-03T13:39:15Z</time>
      </trkpt>
      <trkpt lat="44.7339" lon="-0.36778">
        <ele>75</ele>
        <time>2013-03-03T13:39:16Z</time>
      </trkpt>
      <trkpt lat="44.73396" lon="-0.36777">
        <ele>75</ele>
        <time>2013-03-03T13:39:21Z</time>
      </trkpt>
      <trkpt lat="44.73397" lon="-0.36778">
        <ele>75</ele>
        <time>2013-03-03T13:39:22Z</time>
      </trkpt>
      <trkpt lat="44.73404" lon="-0.36788">
        <ele>75</ele>
        <time>2013-03-03T13:39:27Z</time>
      </trkpt>
      <trkpt lat="44.73407" lon="-0.36807">
        <ele>74</ele>
        <time>2013-03-03T13:39:34Z</time>
      </trkpt>
      <trkpt lat="44.73412" lon="-0.36824">
        <ele>73</ele>
        <time>2013-03-03T13:39:39Z</time>
      </trkpt>
      <trkpt lat="44.73418" lon="-0.36847">
        <ele>73</ele>
        <time>2013-03-03T13:39:46Z</time>
      </trkpt>
      <trkpt lat="44.73428" lon="-0.36875">
        <ele>72</ele>
        <time>2013-03-03T13:39:53Z</time>
      </trkpt>
      <trkpt lat="44.73437" lon="-0.36909">
        <ele>71</ele>
        <time>2013-03-03T13:40:01Z</time>
      </trkpt>
      <trkpt lat="44.73444" lon="-0.3693">
        <ele>71</ele>
        <time>2013-03-03T13:40:08Z</time>
      </trkpt>
      <trkpt lat="44.73446" lon="-0.3693">
        <ele>71</ele>
        <time>2013-03-03T13:40:09Z</time>
      </trkpt>
      <trkpt lat="44.73447" lon="-0.36929">
        <ele>71</ele>
        <time>2013-03-03T13:40:15Z</time>
      </trkpt>
      <trkpt lat="44.73449" lon="-0.3693">
        <ele>71</ele>
        <time>2013-03-03T13:40:25Z</time>
      </trkpt>
      <trkpt lat="44.7345" lon="-0.36931">
        <ele>71</ele>
        <time>2013-03-03T13:40:26Z</time>
      </trkpt>
      <trkpt lat="44.73451" lon="-0.36932">
        <ele>71</ele>
        <time>2013-03-03T13:40:27Z</time>
      </trkpt>
      <trkpt lat="44.7346" lon="-0.36951">
        <ele>70</ele>
        <time>2013-03-03T13:40:33Z</time>
      </trkpt>
      <trkpt lat="44.73475" lon="-0.36986">
        <ele>69</ele>
        <time>2013-03-03T13:40:40Z</time>
      </trkpt>
      <trkpt lat="44.73478" lon="-0.36991">
        <ele>69</ele>
        <time>2013-03-03T13:40:41Z</time>
      </trkpt>
      <trkpt lat="44.73512" lon="-0.37044">
        <ele>68</ele>
        <time>2013-03-03T13:40:52Z</time>
      </trkpt>
      <trkpt lat="44.73532" lon="-0.37083">
        <ele>67</ele>
        <time>2013-03-03T13:41:00Z</time>
      </trkpt>
      <trkpt lat="44.73534" lon="-0.37088">
        <ele>67</ele>
        <time>2013-03-03T13:41:01Z</time>
      </trkpt>
      <trkpt lat="44.73562" lon="-0.37136">
        <ele>67</ele>
        <time>2013-03-03T13:41:11Z</time>
      </trkpt>
      <trkpt lat="44.73588" lon="-0.3718">
        <ele>65</ele>
        <time>2013-03-03T13:41:18Z</time>
      </trkpt>
      <trkpt lat="44.73608" lon="-0.37203">
        <ele>64</ele>
        <time>2013-03-03T13:41:23Z</time>
      </trkpt>
      <trkpt lat="44.73612" lon="-0.37202">
        <ele>63</ele>
        <time>2013-03-03T13:41:24Z</time>
      </trkpt>
      <trkpt lat="44.73622" lon="-0.37198">
        <ele>63</ele>
        <time>2013-03-03T13:41:26Z</time>
      </trkpt>
      <trkpt lat="44.73628" lon="-0.37196">
        <ele>62</ele>
        <time>2013-03-03T13:41:27Z</time>
      </trkpt>
      <trkpt lat="44.73665" lon="-0.37184">
        <ele>58</ele>
        <time>2013-03-03T13:41:33Z</time>
      </trkpt>
      <trkpt lat="44.73673" lon="-0.3718">
        <ele>57</ele>
        <time>2013-03-03T13:41:35Z</time>
      </trkpt>
      <trkpt lat="44.73676" lon="-0.37178">
        <ele>56</ele>
        <time>2013-03-03T13:41:36Z</time>
      </trkpt>
      <trkpt lat="44.73679" lon="-0.37176">
        <ele>56</ele>
        <time>2013-03-03T13:41:37Z</time>
      </trkpt>
      <trkpt lat="44.73681" lon="-0.37174">
        <ele>55</ele>
        <time>2013-03-03T13:41:38Z</time>
      </trkpt>
      <trkpt lat="44.73684" lon="-0.37173">
        <ele>55</ele>
        <time>2013-03-03T13:41:39Z</time>
      </trkpt>
      <trkpt lat="44.73687" lon="-0.37173">
        <ele>54</ele>
        <time>2013-03-03T13:41:40Z</time>
      </trkpt>
      <trkpt lat="44.7369" lon="-0.37173">
        <ele>54</ele>
        <time>2013-03-03T13:41:41Z</time>
      </trkpt>
      <trkpt lat="44.73707" lon="-0.37179">
        <ele>52</ele>
        <time>2013-03-03T13:41:46Z</time>
      </trkpt>
      <trkpt lat="44.73739" lon="-0.37203">
        <ele>48</ele>
        <time>2013-03-03T13:41:53Z</time>
      </trkpt>
      <trkpt lat="44.7377" lon="-0.37232">
        <ele>45</ele>
        <time>2013-03-03T13:42:00Z</time>
      </trkpt>
      <trkpt lat="44.73798" lon="-0.3726">
        <ele>41</ele>
        <time>2013-03-03T13:42:08Z</time>
      </trkpt>
      <trkpt lat="44.73814" lon="-0.37272">
        <ele>39</ele>
        <time>2013-03-03T13:42:14Z</time>
      </trkpt>
      <trkpt lat="44.73817" lon="-0.37272">
        <ele>39</ele>
        <time>2013-03-03T13:42:15Z</time>
      </trkpt>
      <trkpt lat="44.73824" lon="-0.37269">
        <ele>38</ele>
        <time>2013-03-03T13:42:17Z</time>
      </trkpt>
      <trkpt lat="44.73846" lon="-0.37267">
        <ele>36</ele>
        <time>2013-03-03T13:42:23Z</time>
      </trkpt>
      <trkpt lat="44.73864" lon="-0.37275">
        <ele>36</ele>
        <time>2013-03-03T13:42:29Z</time>
      </trkpt>
      <trkpt lat="44.7388" lon="-0.37287">
        <ele>35</ele>
        <time>2013-03-03T13:42:34Z</time>
      </trkpt>
      <trkpt lat="44.73897" lon="-0.37307">
        <ele>36</ele>
        <time>2013-03-03T13:42:40Z</time>
      </trkpt>
      <trkpt lat="44.73906" lon="-0.37323">
        <ele>37</ele>
        <time>2013-03-03T13:42:44Z</time>
      </trkpt>
      <trkpt lat="44.7391" lon="-0.37328">
        <ele>37</ele>
        <time>2013-03-03T13:42:46Z</time>
      </trkpt>
      <trkpt lat="44.73927" lon="-0.37346">
        <ele>37</ele>
        <time>2013-03-03T13:42:54Z</time>
      </trkpt>
      <trkpt lat="44.7393" lon="-0.3735">
        <ele>37</ele>
        <time>2013-03-03T13:42:55Z</time>
      </trkpt>
      <trkpt lat="44.73943" lon="-0.37367">
        <ele>35</ele>
        <time>2013-03-03T13:43:00Z</time>
      </trkpt>
      <trkpt lat="44.73961" lon="-0.37389">
        <ele>33</ele>
        <time>2013-03-03T13:43:06Z</time>
      </trkpt>
      <trkpt lat="44.73976" lon="-0.3741">
        <ele>34</ele>
        <time>2013-03-03T13:43:12Z</time>
      </trkpt>
      <trkpt lat="44.73991" lon="-0.37412">
        <ele>36</ele>
        <time>2013-03-03T13:43:16Z</time>
      </trkpt>
      <trkpt lat="44.74001" lon="-0.37408">
        <ele>36</ele>
        <time>2013-03-03T13:43:21Z</time>
      </trkpt>
      <trkpt lat="44.74011" lon="-0.37408">
        <ele>37</ele>
        <time>2013-03-03T13:43:27Z</time>
      </trkpt>
      <trkpt lat="44.74023" lon="-0.37404">
        <ele>37</ele>
        <time>2013-03-03T13:43:32Z</time>
      </trkpt>
      <trkpt lat="44.74044" lon="-0.37397">
        <ele>37</ele>
        <time>2013-03-03T13:43:41Z</time>
      </trkpt>
      <trkpt lat="44.74059" lon="-0.37394">
        <ele>38</ele>
        <time>2013-03-03T13:43:48Z</time>
      </trkpt>
      <trkpt lat="44.74074" lon="-0.37394">
        <ele>40</ele>
        <time>2013-03-03T13:43:57Z</time>
      </trkpt>
      <trkpt lat="44.74087" lon="-0.37394">
        <ele>42</ele>
        <time>2013-03-03T13:44:05Z</time>
      </trkpt>
      <trkpt lat="44.74096" lon="-0.37395">
        <ele>43</ele>
        <time>2013-03-03T13:44:12Z</time>
      </trkpt>
      <trkpt lat="44.74103" lon="-0.37394">
        <ele>44</ele>
        <time>2013-03-03T13:44:19Z</time>
      </trkpt>
      <trkpt lat="44.74108" lon="-0.37395">
        <ele>45</ele>
        <time>2013-03-03T13:44:26Z</time>
      </trkpt>
      <trkpt lat="44.74115" lon="-0.37395">
        <ele>47</ele>
        <time>2013-03-03T13:44:33Z</time>
      </trkpt>
      <trkpt lat="44.74124" lon="-0.37397">
        <ele>48</ele>
        <time>2013-03-03T13:44:41Z</time>
      </trkpt>
      <trkpt lat="44.7413" lon="-0.37396">
        <ele>50</ele>
        <time>2013-03-03T13:44:47Z</time>
      </trkpt>
      <trkpt lat="44.74136" lon="-0.37398">
        <ele>51</ele>
        <time>2013-03-03T13:44:52Z</time>
      </trkpt>
      <trkpt lat="44.74145" lon="-0.37398">
        <ele>53</ele>
        <time>2013-03-03T13:45:00Z</time>
      </trkpt>
      <trkpt lat="44.74146" lon="-0.37398">
        <ele>53</ele>
        <time>2013-03-03T13:45:01Z</time>
      </trkpt>
      <trkpt lat="44.74157" lon="-0.37401">
        <ele>55</ele>
        <time>2013-03-03T13:45:09Z</time>
      </trkpt>
      <trkpt lat="44.74163" lon="-0.37404">
        <ele>56</ele>
        <time>2013-03-03T13:45:15Z</time>
      </trkpt>
      <trkpt lat="44.74169" lon="-0.37406">
        <ele>57</ele>
        <time>2013-03-03T13:45:21Z</time>
      </trkpt>
      <trkpt lat="44.74175" lon="-0.37409">
        <ele>58</ele>
        <time>2013-03-03T13:45:27Z</time>
      </trkpt>
      <trkpt lat="44.74186" lon="-0.37416">
        <ele>60</ele>
        <time>2013-03-03T13:45:37Z</time>
      </trkpt>
      <trkpt lat="44.74194" lon="-0.37421">
        <ele>62</ele>
        <time>2013-03-03T13:45:44Z</time>
      </trkpt>
      <trkpt lat="44.74204" lon="-0.37429">
        <ele>63</ele>
        <time>2013-03-03T13:45:53Z</time>
      </trkpt>
      <trkpt lat="44.74213" lon="-0.37436">
        <ele>65</ele>
        <time>2013-03-03T13:46:02Z</time>
      </trkpt>
      <trkpt lat="44.74223" lon="-0.37445">
        <ele>67</ele>
        <time>2013-03-03T13:46:11Z</time>
      </trkpt>
      <trkpt lat="44.74235" lon="-0.37456">
        <ele>68</ele>
        <time>2013-03-03T13:46:22Z</time>
      </trkpt>
      <trkpt lat="44.74243" lon="-0.37463">
        <ele>70</ele>
        <time>2013-03-03T13:46:29Z</time>
      </trkpt>
      <trkpt lat="44.74249" lon="-0.37467">
        <ele>71</ele>
        <time>2013-03-03T13:46:34Z</time>
      </trkpt>
      <trkpt lat="44.74257" lon="-0.37475">
        <ele>72</ele>
        <time>2013-03-03T13:46:41Z</time>
      </trkpt>
      <trkpt lat="44.74268" lon="-0.37483">
        <ele>73</ele>
        <time>2013-03-03T13:46:50Z</time>
      </trkpt>
      <trkpt lat="44.74271" lon="-0.37487">
        <ele>73</ele>
        <time>2013-03-03T13:46:53Z</time>
      </trkpt>
      <trkpt lat="44.74276" lon="-0.37492">
        <ele>74</ele>
        <time>2013-03-03T13:46:58Z</time>
      </trkpt>
      <trkpt lat="44.7428" lon="-0.37496">
        <ele>74</ele>
        <time>2013-03-03T13:47:01Z</time>
      </trkpt>
      <trkpt lat="44.74287" lon="-0.37502">
        <ele>75</ele>
        <time>2013-03-03T13:47:08Z</time>
      </trkpt>
      <trkpt lat="44.74296" lon="-0.37507">
        <ele>76</ele>
        <time>2013-03-03T13:47:16Z</time>
      </trkpt>
      <trkpt lat="44.74298" lon="-0.37508">
        <ele>76</ele>
        <time>2013-03-03T13:47:18Z</time>
      </trkpt>
      <trkpt lat="44.74305" lon="-0.37501">
        <ele>76</ele>
        <time>2013-03-03T13:47:26Z</time>
      </trkpt>
      <trkpt lat="44.74308" lon="-0.37496">
        <ele>77</ele>
        <time>2013-03-03T13:47:29Z</time>
      </trkpt>
      <trkpt lat="44.74316" lon="-0.37481">
        <ele>78</ele>
        <time>2013-03-03T13:47:39Z</time>
      </trkpt>
      <trkpt lat="44.74321" lon="-0.37469">
        <ele>79</ele>
        <time>2013-03-03T13:47:46Z</time>
      </trkpt>
      <trkpt lat="44.74325" lon="-0.37454">
        <ele>79</ele>
        <time>2013-03-03T13:47:54Z</time>
      </trkpt>
      <trkpt lat="44.74327" lon="-0.37437">
        <ele>79</ele>
        <time>2013-03-03T13:48:03Z</time>
      </trkpt>
      <trkpt lat="44.74328" lon="-0.37423">
        <ele>79</ele>
        <time>2013-03-03T13:48:12Z</time>
      </trkpt>
      <trkpt lat="44.74329" lon="-0.37421">
        <ele>79</ele>
        <time>2013-03-03T13:48:13Z</time>
      </trkpt>
      <trkpt lat="44.74328" lon="-0.37414">
        <ele>79</ele>
        <time>2013-03-03T13:48:20Z</time>
      </trkpt>
      <trkpt lat="44.74328" lon="-0.37412">
        <ele>79</ele>
        <time>2013-03-03T13:48:38Z</time>
      </trkpt>
      <trkpt lat="44.74327" lon="-0.37411">
        <ele>79</ele>
        <time>2013-03-03T13:48:53Z</time>
      </trkpt>
      <trkpt lat="44.74328" lon="-0.37411">
        <ele>79</ele>
        <time>2013-03-03T13:49:03Z</time>
      </trkpt>
      <trkpt lat="44.74328" lon="-0.37411">
        <ele>79</ele>
        <time>2013-03-03T13:49:09Z</time>
      </trkpt>
      <trkpt lat="44.74328" lon="-0.37401">
        <ele>79</ele>
        <time>2013-03-03T13:49:16Z</time>
      </trkpt>
      <trkpt lat="44.7433" lon="-0.37388">
        <ele>79</ele>
        <time>2013-03-03T13:49:22Z</time>
      </trkpt>
      <trkpt lat="44.74331" lon="-0.37377">
        <ele>79</ele>
        <time>2013-03-03T13:49:31Z</time>
      </trkpt>
      <trkpt lat="44.74331" lon="-0.37363">
        <ele>79</ele>
        <time>2013-03-03T13:49:39Z</time>
      </trkpt>
      <trkpt lat="44.74333" lon="-0.37349">
        <ele>78</ele>
        <time>2013-03-03T13:49:45Z</time>
      </trkpt>
      <trkpt lat="44.7434" lon="-0.37323">
        <ele>76</ele>
        <time>2013-03-03T13:49:51Z</time>
      </trkpt>
      <trkpt lat="44.74344" lon="-0.37311">
        <ele>74</ele>
        <time>2013-03-03T13:49:53Z</time>
      </trkpt>
      <trkpt lat="44.74346" lon="-0.37304">
        <ele>74</ele>
        <time>2013-03-03T13:49:54Z</time>
      </trkpt>
      <trkpt lat="44.74349" lon="-0.37298">
        <ele>73</ele>
        <time>2013-03-03T13:49:55Z</time>
      </trkpt>
      <trkpt lat="44.74353" lon="-0.37293">
        <ele>73</ele>
        <time>2013-03-03T13:49:56Z</time>
      </trkpt>
      <trkpt lat="44.74357" lon="-0.37287">
        <ele>72</ele>
        <time>2013-03-03T13:49:57Z</time>
      </trkpt>
      <trkpt lat="44.74377" lon="-0.37262">
        <ele>71</ele>
        <time>2013-03-03T13:50:01Z</time>
      </trkpt>
      <trkpt lat="44.74384" lon="-0.37257">
        <ele>71</ele>
        <time>2013-03-03T13:50:02Z</time>
      </trkpt>
      <trkpt lat="44.74391" lon="-0.37253">
        <ele>71</ele>
        <time>2013-03-03T13:50:03Z</time>
      </trkpt>
      <trkpt lat="44.74405" lon="-0.37247">
        <ele>70</ele>
        <time>2013-03-03T13:50:05Z</time>
      </trkpt>
      <trkpt lat="44.74429" lon="-0.3724">
        <ele>70</ele>
        <time>2013-03-03T13:50:08Z</time>
      </trkpt>
      <trkpt lat="44.74437" lon="-0.37237">
        <ele>69</ele>
        <time>2013-03-03T13:50:09Z</time>
      </trkpt>
      <trkpt lat="44.74445" lon="-0.37232">
        <ele>68</ele>
        <time>2013-03-03T13:50:10Z</time>
      </trkpt>
      <trkpt lat="44.74453" lon="-0.37226">
        <ele>67</ele>
        <time>2013-03-03T13:50:11Z</time>
      </trkpt>
      <trkpt lat="44.7446" lon="-0.37217">
        <ele>67</ele>
        <time>2013-03-03T13:50:12Z</time>
      </trkpt>
      <trkpt lat="44.74466" lon="-0.37207">
        <ele>66</ele>
        <time>2013-03-03T13:50:13Z</time>
      </trkpt>
      <trkpt lat="44.74472" lon="-0.37197">
        <ele>66</ele>
        <time>2013-03-03T13:50:14Z</time>
      </trkpt>
      <trkpt lat="44.74477" lon="-0.37187">
        <ele>66</ele>
        <time>2013-03-03T13:50:15Z</time>
      </trkpt>
      <trkpt lat="44.74509" lon="-0.37118">
        <ele>65</ele>
        <time>2013-03-03T13:50:22Z</time>
      </trkpt>
      <trkpt lat="44.74531" lon="-0.3707">
        <ele>66</ele>
        <time>2013-03-03T13:50:28Z</time>
      </trkpt>
      <trkpt lat="44.74537" lon="-0.37057">
        <ele>66</ele>
        <time>2013-03-03T13:50:30Z</time>
      </trkpt>
      <trkpt lat="44.74545" lon="-0.37038">
        <ele>67</ele>
        <time>2013-03-03T13:50:35Z</time>
      </trkpt>
      <trkpt lat="44.74544" lon="-0.37036">
        <ele>67</ele>
        <time>2013-03-03T13:50:36Z</time>
      </trkpt>
      <trkpt lat="44.74543" lon="-0.37035">
        <ele>67</ele>
        <time>2013-03-03T13:50:37Z</time>
      </trkpt>
      <trkpt lat="44.74526" lon="-0.37022">
        <ele>66</ele>
        <time>2013-03-03T13:50:45Z</time>
      </trkpt>
      <trkpt lat="44.74506" lon="-0.37005">
        <ele>64</ele>
        <time>2013-03-03T13:50:51Z</time>
      </trkpt>
      <trkpt lat="44.74494" lon="-0.36993">
        <ele>63</ele>
        <time>2013-03-03T13:50:54Z</time>
      </trkpt>
      <trkpt lat="44.74459" lon="-0.3696">
        <ele>58</ele>
        <time>2013-03-03T13:51:02Z</time>
      </trkpt>
      <trkpt lat="44.74448" lon="-0.3695">
        <ele>56</ele>
        <time>2013-03-03T13:51:06Z</time>
      </trkpt>
      <trkpt lat="44.74441" lon="-0.36941">
        <ele>54</ele>
        <time>2013-03-03T13:51:08Z</time>
      </trkpt>
      <trkpt lat="44.74423" lon="-0.36916">
        <ele>51</ele>
        <time>2013-03-03T13:51:14Z</time>
      </trkpt>
      <trkpt lat="44.7442" lon="-0.36912">
        <ele>50</ele>
        <time>2013-03-03T13:51:15Z</time>
      </trkpt>
      <trkpt lat="44.74411" lon="-0.36878">
        <ele>48</ele>
        <time>2013-03-03T13:51:20Z</time>
      </trkpt>
      <trkpt lat="44.74408" lon="-0.36834">
        <ele>45</ele>
        <time>2013-03-03T13:51:24Z</time>
      </trkpt>
      <trkpt lat="44.74404" lon="-0.36803">
        <ele>44</ele>
        <time>2013-03-03T13:51:27Z</time>
      </trkpt>
      <trkpt lat="44.74396" lon="-0.36768">
        <ele>44</ele>
        <time>2013-03-03T13:51:32Z</time>
      </trkpt>
      <trkpt lat="44.74391" lon="-0.3675">
        <ele>45</ele>
        <time>2013-03-03T13:51:37Z</time>
      </trkpt>
      <trkpt lat="44.74383" lon="-0.36739">
        <ele>46</ele>
        <time>2013-03-03T13:51:41Z</time>
      </trkpt>
      <trkpt lat="44.74376" lon="-0.3673">
        <ele>47</ele>
        <time>2013-03-03T13:51:45Z</time>
      </trkpt>
      <trkpt lat="44.74372" lon="-0.36722">
        <ele>48</ele>
        <time>2013-03-03T13:51:49Z</time>
      </trkpt>
      <trkpt lat="44.74368" lon="-0.3671">
        <ele>49</ele>
        <time>2013-03-03T13:51:54Z</time>
      </trkpt>
      <trkpt lat="44.74361" lon="-0.3669">
        <ele>50</ele>
        <time>2013-03-03T13:52:01Z</time>
      </trkpt>
      <trkpt lat="44.74357" lon="-0.36677">
        <ele>51</ele>
        <time>2013-03-03T13:52:06Z</time>
      </trkpt>
      <trkpt lat="44.74356" lon="-0.36673">
        <ele>51</ele>
        <time>2013-03-03T13:52:08Z</time>
      </trkpt>
      <trkpt lat="44.7435" lon="-0.36661">
        <ele>52</ele>
        <time>2013-03-03T13:52:15Z</time>
      </trkpt>
      <trkpt lat="44.74348" lon="-0.36658">
        <ele>53</ele>
        <time>2013-03-03T13:52:17Z</time>
      </trkpt>
      <trkpt lat="44.7434" lon="-0.36638">
        <ele>55</ele>
        <time>2013-03-03T13:52:24Z</time>
      </trkpt>
      <trkpt lat="44.74337" lon="-0.36627">
        <ele>56</ele>
        <time>2013-03-03T13:52:28Z</time>
      </trkpt>
      <trkpt lat="44.74333" lon="-0.36609">
        <ele>57</ele>
        <time>2013-03-03T13:52:35Z</time>
      </trkpt>
      <trkpt lat="44.74331" lon="-0.36583">
        <ele>59</ele>
        <time>2013-03-03T13:52:43Z</time>
      </trkpt>
      <trkpt lat="44.74326" lon="-0.36567">
        <ele>60</ele>
        <time>2013-03-03T13:52:51Z</time>
      </trkpt>
      <trkpt lat="44.74322" lon="-0.36555">
        <ele>61</ele>
        <time>2013-03-03T13:52:59Z</time>
      </trkpt>
      <trkpt lat="44.74317" lon="-0.36548">
        <ele>61</ele>
        <time>2013-03-03T13:53:06Z</time>
      </trkpt>
      <trkpt lat="44.74312" lon="-0.3654">
        <ele>62</ele>
        <time>2013-03-03T13:53:13Z</time>
      </trkpt>
      <trkpt lat="44.74307" lon="-0.36535">
        <ele>63</ele>
        <time>2013-03-03T13:53:19Z</time>
      </trkpt>
      <trkpt lat="44.74302" lon="-0.36528">
        <ele>63</ele>
        <time>2013-03-03T13:53:25Z</time>
      </trkpt>
      <trkpt lat="44.74301" lon="-0.36527">
        <ele>64</ele>
        <time>2013-03-03T13:53:26Z</time>
      </trkpt>
      <trkpt lat="44.74293" lon="-0.36517">
        <ele>65</ele>
        <time>2013-03-03T13:53:34Z</time>
      </trkpt>
      <trkpt lat="44.74287" lon="-0.36512">
        <ele>66</ele>
        <time>2013-03-03T13:53:40Z</time>
      </trkpt>
      <trkpt lat="44.74279" lon="-0.36504">
        <ele>68</ele>
        <time>2013-03-03T13:53:48Z</time>
      </trkpt>
      <trkpt lat="44.74274" lon="-0.36496">
        <ele>68</ele>
        <time>2013-03-03T13:53:54Z</time>
      </trkpt>
      <trkpt lat="44.74268" lon="-0.36489">
        <ele>69</ele>
        <time>2013-03-03T13:54:01Z</time>
      </trkpt>
      <trkpt lat="44.74263" lon="-0.36479">
        <ele>71</ele>
        <time>2013-03-03T13:54:08Z</time>
      </trkpt>
      <trkpt lat="44.74257" lon="-0.36471">
        <ele>72</ele>
        <time>2013-03-03T13:54:15Z</time>
      </trkpt>
      <trkpt lat="44.74254" lon="-0.36465">
        <ele>73</ele>
        <time>2013-03-03T13:54:19Z</time>
      </trkpt>
      <trkpt lat="44.74252" lon="-0.36458">
        <ele>73</ele>
        <time>2013-03-03T13:54:23Z</time>
      </trkpt>
      <trkpt lat="44.7425" lon="-0.36453">
        <ele>74</ele>
        <time>2013-03-03T13:54:26Z</time>
      </trkpt>
      <trkpt lat="44.74247" lon="-0.36446">
        <ele>75</ele>
        <time>2013-03-03T13:54:31Z</time>
      </trkpt>
      <trkpt lat="44.74241" lon="-0.36432">
        <ele>77</ele>
        <time>2013-03-03T13:54:40Z</time>
      </trkpt>
      <trkpt lat="44.7424" lon="-0.36431">
        <ele>77</ele>
        <time>2013-03-03T13:54:41Z</time>
      </trkpt>
      <trkpt lat="44.74234" lon="-0.36416">
        <ele>79</ele>
        <time>2013-03-03T13:54:50Z</time>
      </trkpt>
      <trkpt lat="44.74228" lon="-0.36403">
        <ele>80</ele>
        <time>2013-03-03T13:54:59Z</time>
      </trkpt>
      <trkpt lat="44.74227" lon="-0.36402">
        <ele>81</ele>
        <time>2013-03-03T13:55:00Z</time>
      </trkpt>
      <trkpt lat="44.74224" lon="-0.36394">
        <ele>81</ele>
        <time>2013-03-03T13:55:05Z</time>
      </trkpt>
      <trkpt lat="44.74219" lon="-0.36376">
        <ele>83</ele>
        <time>2013-03-03T13:55:16Z</time>
      </trkpt>
      <trkpt lat="44.74212" lon="-0.3636">
        <ele>85</ele>
        <time>2013-03-03T13:55:25Z</time>
      </trkpt>
      <trkpt lat="44.74207" lon="-0.36343">
        <ele>86</ele>
        <time>2013-03-03T13:55:34Z</time>
      </trkpt>
      <trkpt lat="44.74201" lon="-0.36324">
        <ele>88</ele>
        <time>2013-03-03T13:55:44Z</time>
      </trkpt>
      <trkpt lat="44.74198" lon="-0.36308">
        <ele>89</ele>
        <time>2013-03-03T13:55:53Z</time>
      </trkpt>
      <trkpt lat="44.74199" lon="-0.36287">
        <ele>91</ele>
        <time>2013-03-03T13:56:03Z</time>
      </trkpt>
      <trkpt lat="44.74202" lon="-0.36271">
        <ele>92</ele>
        <time>2013-03-03T13:56:12Z</time>
      </trkpt>
      <trkpt lat="44.74208" lon="-0.36253">
        <ele>93</ele>
        <time>2013-03-03T13:56:22Z</time>
      </trkpt>
      <trkpt lat="44.74204" lon="-0.36235">
        <ele>94</ele>
        <time>2013-03-03T13:56:31Z</time>
      </trkpt>
      <trkpt lat="44.74196" lon="-0.36217">
        <ele>96</ele>
        <time>2013-03-03T13:56:42Z</time>
      </trkpt>
      <trkpt lat="44.74186" lon="-0.36196">
        <ele>98</ele>
        <time>2013-03-03T13:56:54Z</time>
      </trkpt>
      <trkpt lat="44.74175" lon="-0.36185">
        <ele>98</ele>
        <time>2013-03-03T13:57:02Z</time>
      </trkpt>
      <trkpt lat="44.74161" lon="-0.36179">
        <ele>99</ele>
        <time>2013-03-03T13:57:11Z</time>
      </trkpt>
      <trkpt lat="44.74148" lon="-0.36171">
        <ele>99</ele>
        <time>2013-03-03T13:57:19Z</time>
      </trkpt>
      <trkpt lat="44.74138" lon="-0.36165">
        <ele>99</ele>
        <time>2013-03-03T13:57:27Z</time>
      </trkpt>
      <trkpt lat="44.74139" lon="-0.36165">
        <ele>99</ele>
        <time>2013-03-03T13:57:38Z</time>
      </trkpt>
      <trkpt lat="44.74138" lon="-0.36164">
        <ele>99</ele>
        <time>2013-03-03T13:57:52Z</time>
      </trkpt>
      <trkpt lat="44.74138" lon="-0.36164">
        <ele>99</ele>
        <time>2013-03-03T13:58:04Z</time>
      </trkpt>
      <trkpt lat="44.74138" lon="-0.36164">
        <ele>99</ele>
        <time>2013-03-03T13:58:19Z</time>
      </trkpt>
      <trkpt lat="44.74138" lon="-0.36165">
        <ele>99</ele>
        <time>2013-03-03T13:58:31Z</time>
      </trkpt>
      <trkpt lat="44.74138" lon="-0.36165">
        <ele>99</ele>
        <time>2013-03-03T13:58:33Z</time>
      </trkpt>
      <trkpt lat="44.74136" lon="-0.36161">
        <ele>99</ele>
        <time>2013-03-03T13:58:40Z</time>
      </trkpt>
      <trkpt lat="44.74136" lon="-0.36162">
        <ele>99</ele>
        <time>2013-03-03T13:58:49Z</time>
      </trkpt>
      <trkpt lat="44.74135" lon="-0.36161">
        <ele>99</ele>
        <time>2013-03-03T13:58:56Z</time>
      </trkpt>
      <trkpt lat="44.74135" lon="-0.36162">
        <ele>99</ele>
        <time>2013-03-03T13:59:08Z</time>
      </trkpt>
      <trkpt lat="44.74136" lon="-0.36162">
        <ele>99</ele>
        <time>2013-03-03T13:59:19Z</time>
      </trkpt>
      <trkpt lat="44.74136" lon="-0.36162">
        <ele>99</ele>
        <time>2013-03-03T13:59:29Z</time>
      </trkpt>
      <trkpt lat="44.74136" lon="-0.36162">
        <ele>99</ele>
        <time>2013-03-03T13:59:38Z</time>
      </trkpt>
      <trkpt lat="44.74134" lon="-0.3616">
        <ele>99</ele>
        <time>2013-03-03T13:59:43Z</time>
      </trkpt>
      <trkpt lat="44.74123" lon="-0.36151">
        <ele>99</ele>
        <time>2013-03-03T13:59:52Z</time>
      </trkpt>
      <trkpt lat="44.74117" lon="-0.36144">
        <ele>99</ele>
        <time>2013-03-03T13:59:59Z</time>
      </trkpt>
      <trkpt lat="44.74103" lon="-0.36129">
        <ele>98</ele>
        <time>2013-03-03T14:00:06Z</time>
      </trkpt>
      <trkpt lat="44.74101" lon="-0.36126">
        <ele>98</ele>
        <time>2013-03-03T14:00:07Z</time>
      </trkpt>
      <trkpt lat="44.74098" lon="-0.36122">
        <ele>97</ele>
        <time>2013-03-03T14:00:08Z</time>
      </trkpt>
      <trkpt lat="44.7408" lon="-0.36099">
        <ele>95</ele>
        <time>2013-03-03T14:00:15Z</time>
      </trkpt>
      <trkpt lat="44.74053" lon="-0.36062">
        <ele>91</ele>
        <time>2013-03-03T14:00:23Z</time>
      </trkpt>
      <trkpt lat="44.74031" lon="-0.3604">
        <ele>90</ele>
        <time>2013-03-03T14:00:28Z</time>
      </trkpt>
      <trkpt lat="44.74022" lon="-0.36033">
        <ele>90</ele>
        <time>2013-03-03T14:00:30Z</time>
      </trkpt>
      <trkpt lat="44.74018" lon="-0.36029">
        <ele>90</ele>
        <time>2013-03-03T14:00:31Z</time>
      </trkpt>
      <trkpt lat="44.74014" lon="-0.36025">
        <ele>90</ele>
        <time>2013-03-03T14:00:32Z</time>
      </trkpt>
      <trkpt lat="44.7399" lon="-0.36005">
        <ele>90</ele>
        <time>2013-03-03T14:00:39Z</time>
      </trkpt>
      <trkpt lat="44.73957" lon="-0.3597">
        <ele>90</ele>
        <time>2013-03-03T14:00:48Z</time>
      </trkpt>
      <trkpt lat="44.73926" lon="-0.35936">
        <ele>91</ele>
        <time>2013-03-03T14:00:57Z</time>
      </trkpt>
      <trkpt lat="44.73893" lon="-0.359">
        <ele>91</ele>
        <time>2013-03-03T14:01:07Z</time>
      </trkpt>
      <trkpt lat="44.73868" lon="-0.35881">
        <ele>92</ele>
        <time>2013-03-03T14:01:14Z</time>
      </trkpt>
      <trkpt lat="44.73829" lon="-0.35866">
        <ele>92</ele>
        <time>2013-03-03T14:01:24Z</time>
      </trkpt>
      <trkpt lat="44.73793" lon="-0.35872">
        <ele>92</ele>
        <time>2013-03-03T14:01:32Z</time>
      </trkpt>
      <trkpt lat="44.73759" lon="-0.35883">
        <ele>92</ele>
        <time>2013-03-03T14:01:40Z</time>
      </trkpt>
      <trkpt lat="44.7373" lon="-0.35893">
        <ele>92</ele>
        <time>2013-03-03T14:01:48Z</time>
      </trkpt>
      <trkpt lat="44.73704" lon="-0.359">
        <ele>91</ele>
        <time>2013-03-03T14:01:55Z</time>
      </trkpt>
      <trkpt lat="44.73676" lon="-0.35905">
        <ele>91</ele>
        <time>2013-03-03T14:02:01Z</time>
      </trkpt>
      <trkpt lat="44.73673" lon="-0.35905">
        <ele>91</ele>
        <time>2013-03-03T14:02:02Z</time>
      </trkpt>
      <trkpt lat="44.7367" lon="-0.35905">
        <ele>91</ele>
        <time>2013-03-03T14:02:03Z</time>
      </trkpt>
      <trkpt lat="44.73667" lon="-0.35902">
        <ele>91</ele>
        <time>2013-03-03T14:02:04Z</time>
      </trkpt>
      <trkpt lat="44.73665" lon="-0.35899">
        <ele>91</ele>
        <time>2013-03-03T14:02:05Z</time>
      </trkpt>
      <trkpt lat="44.73663" lon="-0.35895">
        <ele>91</ele>
        <time>2013-03-03T14:02:06Z</time>
      </trkpt>
      <trkpt lat="44.73658" lon="-0.35889">
        <ele>91</ele>
        <time>2013-03-03T14:02:08Z</time>
      </trkpt>
      <trkpt lat="44.73654" lon="-0.35889">
        <ele>91</ele>
        <time>2013-03-03T14:02:09Z</time>
      </trkpt>
      <trkpt lat="44.73651" lon="-0.35891">
        <ele>91</ele>
        <time>2013-03-03T14:02:10Z</time>
      </trkpt>
      <trkpt lat="44.73647" lon="-0.35893">
        <ele>91</ele>
        <time>2013-03-03T14:02:11Z</time>
      </trkpt>
      <trkpt lat="44.73643" lon="-0.35895">
        <ele>91</ele>
        <time>2013-03-03T14:02:12Z</time>
      </trkpt>
      <trkpt lat="44.73612" lon="-0.35909">
        <ele>90</ele>
        <time>2013-03-03T14:02:20Z</time>
      </trkpt>
      <trkpt lat="44.73564" lon="-0.35933">
        <ele>90</ele>
        <time>2013-03-03T14:02:31Z</time>
      </trkpt>
      <trkpt lat="44.73545" lon="-0.35937">
        <ele>90</ele>
        <time>2013-03-03T14:02:35Z</time>
      </trkpt>
      <trkpt lat="44.73541" lon="-0.35936">
        <ele>90</ele>
        <time>2013-03-03T14:02:36Z</time>
      </trkpt>
      <trkpt lat="44.73537" lon="-0.35934">
        <ele>90</ele>
        <time>2013-03-03T14:02:37Z</time>
      </trkpt>
    </trkseg>
  </trk>
</gpx>